NCAR-RAP Real-Time Weather Data

Output produced by METARs form (22 June 2018  20:48 UTC)
found at http://weather.rap.ucar.edu/surface/
 
Conditions at: KPIE observed 22 June 2018  19:53 UTC
Temperature: 31.7°C (89°F)
Dewpoint: 23.9°C (75°F) [RH = 63%]
Pressure (altimeter): 29.96 inches Hg (1014.6 mb)
[Sea-level pressure: 1014.6 mb]
Winds: from the W (260 degrees) at 12 MPH (10 knots; 5.2 m/s)
Visibility: 10 or more miles (16+ km)
Ceiling: at least 12,000 feet AGL
Clouds: few clouds at 3500 feet AGL
Present Weather: no significant weather observed at this time
KPIE 221953Z 26010KT 10SM FEW035 32/24 A2996 RMK AO2 SLP146 T03170239

Conditions at: KPIE observed 22 June 2018  18:53 UTC
Temperature: 31.1°C (88°F)
Dewpoint: 24.4°C (76°F) [RH = 68%]
Pressure (altimeter): 29.97 inches Hg (1015.0 mb)
[Sea-level pressure: 1014.9 mb]
Winds: from the NW (320 degrees) at 13 MPH (11 knots; 5.7 m/s)
gusting to 18 MPH (16 knots; 8.3 m/s)
Visibility: 10 or more miles (16+ km)
Ceiling: at least 12,000 feet AGL
Clouds: scattered clouds at 3500 feet AGL
Present Weather: no significant weather observed at this time
KPIE 221853Z 32011G16KT 10SM SCT035 31/24 A2997 RMK AO2 SLP149 T03110244

Conditions at: KPIE observed 22 June 2018  17:53 UTC
Temperature: 31.7°C (89°F)
Dewpoint: 24.4°C (76°F) [RH = 65%]
Pressure (altimeter): 29.99 inches Hg (1015.7 mb)
[Sea-level pressure: 1015.5 mb]
Winds: from the NW (320 degrees) at 9 MPH (8 knots; 4.2 m/s)
Visibility: 10 or more miles (16+ km)
Ceiling: at least 12,000 feet AGL
Clouds: scattered clouds at 3500 feet AGL
scattered clouds at 4600 feet AGL
Present Weather: no significant weather observed at this time
KPIE 221753Z 32008KT 10SM SCT035 SCT046 32/24 A2999 RMK AO2 SLP155 T03170244 10322 20272 58004

Conditions at: KPIE observed 22 June 2018  16:53 UTC
Temperature: 31.1°C (88°F)
Dewpoint: 23.9°C (75°F) [RH = 66%]
Pressure (altimeter): 30.00 inches Hg (1016.0 mb)
[Sea-level pressure: 1015.8 mb]
Winds: from the WNW (300 degrees) at 9 MPH (8 knots; 4.2 m/s)
Visibility: 10 or more miles (16+ km)
Ceiling: at least 12,000 feet AGL
Clouds: scattered clouds at 3300 feet AGL
scattered clouds at 4500 feet AGL
Present Weather: no significant weather observed at this time
KPIE 221653Z 30008KT 10SM SCT033 SCT045 31/24 A3000 RMK AO2 SLP158 T03110239

Conditions at: KPIE observed 22 June 2018  15:53 UTC
Temperature: 30.6°C (87°F)
Dewpoint: 23.3°C (74°F) [RH = 65%]
Pressure (altimeter): 30.00 inches Hg (1016.0 mb)
[Sea-level pressure: 1015.7 mb]
Winds: from the NW (310 degrees) at 9 MPH (8 knots; 4.2 m/s)
Visibility: 10 or more miles (16+ km)
Ceiling: at least 12,000 feet AGL
Clouds: few clouds at 3600 feet AGL
scattered clouds at 4700 feet AGL
Present Weather: no significant weather observed at this time
KPIE 221553Z 31008KT 10SM FEW036 SCT047 31/23 A3000 RMK AO2 SLP157 T03060233

Conditions at: KPIE observed 22 June 2018  14:53 UTC
Temperature: 29.4°C (85°F)
Dewpoint: 25.6°C (78°F) [RH = 80%]
Pressure (altimeter): 30.00 inches Hg (1016.0 mb)
[Sea-level pressure: 1015.8 mb]
Winds: from the NW (320 degrees) at 7 MPH (6 knots; 3.1 m/s)
Visibility: 10 or more miles (16+ km)
Ceiling: at least 12,000 feet AGL
Clouds: scattered clouds at 2800 feet AGL
scattered clouds at 3300 feet AGL
Present Weather: no significant weather observed at this time
KPIE 221453Z 32006KT 10SM SCT028 SCT033 29/26 A3000 RMK AO2 SLP158 T02940256 50006

Conditions at: KPIE observed 22 June 2018  14:37 UTC
Temperature: 28.3°C (83°F)
Dewpoint: 25.6°C (78°F) [RH = 85%]
Pressure (altimeter): 30.01 inches Hg (1016.3 mb)
Winds: from the NNW (340 degrees) at 10 MPH (9 knots; 4.7 m/s)
Visibility: 10 or more miles (16+ km)
Ceiling: 3900 feet AGL
Clouds: scattered clouds at 2300 feet AGL
scattered clouds at 2800 feet AGL
broken clouds at 3900 feet AGL
Present Weather: no significant weather observed at this time
KPIE 221437Z 34009KT 10SM SCT023 SCT028 BKN039 28/26 A3001 RMK AO2 T02830256

Conditions at: KPIE observed 22 June 2018  13:53 UTC
Temperature: 27.8°C (82°F)
Dewpoint: 25.0°C (77°F) [RH = 85%]
Pressure (altimeter): 30.00 inches Hg (1016.0 mb)
[Sea-level pressure: 1015.9 mb]
Winds: from the WNW (300 degrees) at 7 MPH (6 knots; 3.1 m/s)
Visibility: 10 or more miles (16+ km)
Ceiling: at least 12,000 feet AGL
Clouds: scattered clouds at 2000 feet AGL
Present Weather: no significant weather observed at this time
KPIE 221353Z COR 30006KT 10SM SCT020 28/25 A3000 RMK AO2 LTG DSNT NE AND E SLP159 T02780250

Conditions at: KPIE observed 22 June 2018  12:53 UTC
Temperature: 29.4°C (85°F)
Dewpoint: 25.6°C (78°F) [RH = 80%]
Pressure (altimeter): 30.00 inches Hg (1016.0 mb)
[Sea-level pressure: 1015.7 mb]
Winds: from the W (260 degrees) at 9 MPH (8 knots; 4.2 m/s)
Visibility: 10 or more miles (16+ km)
Ceiling: at least 12,000 feet AGL
Clouds: scattered clouds at 1800 feet AGL
Present Weather: no significant weather observed at this time
KPIE 221253Z COR 26008KT 10SM SCT018 29/26 A3000 RMK AO2 SLP157 T02940256

Conditions at: KPIE observed 22 June 2018  11:53 UTC
Temperature: 27.2°C (81°F)
Dewpoint: 25.0°C (77°F) [RH = 88%]
Pressure (altimeter): 29.98 inches Hg (1015.3 mb)
[Sea-level pressure: 1015.3 mb]
Winds: from the W (260 degrees) at 7 MPH (6 knots; 3.1 m/s)
Visibility: 10 or more miles (16+ km)
Ceiling: at least 12,000 feet AGL
Clouds: few clouds at 1200 feet AGL
scattered clouds at 2300 feet AGL
Present Weather: no significant weather observed at this time
KPIE 221153Z 26006KT 10SM FEW012 SCT023 27/25 A2998 RMK AO2 SLP153 70018 T02720250 10272 20256 53020

Conditions at: KPIE observed 22 June 2018  10:53 UTC
Temperature: 26.1°C (79°F)
Dewpoint: 24.4°C (76°F) [RH = 90%]
Pressure (altimeter): 29.96 inches Hg (1014.6 mb)
[Sea-level pressure: 1014.5 mb]
Winds: from the WSW (240 degrees) at 5 MPH (4 knots; 2.1 m/s)
Visibility: 10 or more miles (16+ km)
Ceiling: at least 12,000 feet AGL
Clouds: scattered clouds at 1200 feet AGL
Present Weather: no significant weather observed at this time
KPIE 221053Z COR 24004KT 10SM SCT012 26/24 A2996 RMK AO2 SLP145 T02610244

Conditions at: KPIE observed 22 June 2018  09:53 UTC
Temperature: 26.1°C (79°F)
Dewpoint: 24.4°C (76°F) [RH = 90%]
Pressure (altimeter): 29.94 inches Hg (1014.0 mb)
[Sea-level pressure: 1013.9 mb]
Winds: from the W (260 degrees) at 5 MPH (4 knots; 2.1 m/s)
Visibility: 10 or more miles (16+ km)
Ceiling: at least 12,000 feet AGL
Clouds: sky clear below 12,000 feet AGL
Present Weather: no significant weather observed at this time
KPIE 220953Z 26004KT 10SM CLR 26/24 A2994 RMK AO2 SLP139 T02610244

Conditions at: KPIE observed 22 June 2018  08:53 UTC
Temperature: 26.1°C (79°F)
Dewpoint: 24.4°C (76°F) [RH = 90%]
Pressure (altimeter): 29.92 inches Hg (1013.3 mb)
[Sea-level pressure: 1013.3 mb]
Winds: from the WSW (240 degrees) at 6 MPH (5 knots; 2.6 m/s)
Visibility: 10 or more miles (16+ km)
Ceiling: at least 12,000 feet AGL
Clouds: sky clear below 12,000 feet AGL
Present Weather: automated observation with no human augmentation;
there may or may not be significant weather present at this time
KPIE 220853Z AUTO 24005KT 10SM CLR 26/24 A2992 RMK AO2 SLP133 T02610244 55005

Conditions at: KPIE observed 22 June 2018  07:53 UTC
Temperature: 26.7°C (80°F)
Dewpoint: 25.0°C (77°F) [RH = 90%]
Pressure (altimeter): 29.92 inches Hg (1013.3 mb)
[Sea-level pressure: 1013.1 mb]
Winds: from the WSW (250 degrees) at 5 MPH (4 knots; 2.1 m/s)
Visibility: 10 or more miles (16+ km)
Ceiling: at least 12,000 feet AGL
Clouds: sky clear below 12,000 feet AGL
Present Weather: automated observation with no human augmentation;
there may or may not be significant weather present at this time
KPIE 220753Z AUTO 25004KT 10SM CLR 27/25 A2992 RMK AO2 SLP131 T02670250

Conditions at: KPIE observed 22 June 2018  06:53 UTC
Temperature: 26.7°C (80°F)
Dewpoint: 25.0°C (77°F) [RH = 90%]
Pressure (altimeter): 29.92 inches Hg (1013.3 mb)
[Sea-level pressure: 1013.2 mb]
Winds: from the WSW (240 degrees) at 3 MPH (3 knots; 1.6 m/s)
Visibility: 10 or more miles (16+ km)
Ceiling: at least 12,000 feet AGL
Clouds: sky clear below 12,000 feet AGL
Present Weather: automated observation with no human augmentation;
there may or may not be significant weather present at this time
KPIE 220653Z AUTO 24003KT 10SM CLR 27/25 A2992 RMK AO2 SLP132 T02670250

Conditions at: KPIE observed 22 June 2018  05:53 UTC
Temperature: 25.6°C (78°F)
Dewpoint: 25.0°C (77°F) [RH = 96%]
Pressure (altimeter): 29.94 inches Hg (1014.0 mb)
[Sea-level pressure: 1013.8 mb]
Winds: from the S (190 degrees) at 5 MPH (4 knots; 2.1 m/s)
Visibility: 10 or more miles (16+ km)
Ceiling: at least 12,000 feet AGL
Clouds: sky clear below 12,000 feet AGL
Present Weather: automated observation with no human augmentation;
there may or may not be significant weather present at this time
KPIE 220553Z AUTO 19004KT 10SM CLR 26/25 A2994 RMK AO2 SLP138 T02560250 10283 20256 58012

Conditions at: KPIE observed 22 June 2018  04:53 UTC
Temperature: 26.7°C (80°F)
Dewpoint: 24.4°C (76°F) [RH = 87%]
Pressure (altimeter): 29.96 inches Hg (1014.6 mb)
[Sea-level pressure: 1014.4 mb]
Winds: calm
Visibility: 10 or more miles (16+ km)
Ceiling: at least 12,000 feet AGL
Clouds: sky clear below 12,000 feet AGL
Present Weather: automated observation with no human augmentation;
there may or may not be significant weather present at this time
KPIE 220453Z AUTO 00000KT 10SM CLR 27/24 A2996 RMK AO2 SLP144 T02670244 403060261

Conditions at: KPIE observed 22 June 2018  03:53 UTC
Temperature: 26.7°C (80°F)
Dewpoint: 25.0°C (77°F) [RH = 90%]
Pressure (altimeter): 29.97 inches Hg (1015.0 mb)
[Sea-level pressure: 1014.8 mb]
Winds: from the WSW (250 degrees) at 6 MPH (5 knots; 2.6 m/s)
Visibility: 10 or more miles (16+ km)
Ceiling: at least 12,000 feet AGL
Clouds: sky clear below 12,000 feet AGL
Present Weather: automated observation with no human augmentation;
there may or may not be significant weather present at this time
KPIE 220353Z AUTO 25005KT 10SM CLR 27/25 A2997 RMK AO2 SLP148 T02670250

Conditions at: KPIE observed 22 June 2018  02:53 UTC
Temperature: 27.2°C (81°F)
Dewpoint: 25.0°C (77°F) [RH = 88%]
Pressure (altimeter): 29.97 inches Hg (1015.0 mb)
[Sea-level pressure: 1014.9 mb]
Winds: from the W (260 degrees) at 5 MPH (4 knots; 2.1 m/s)
Visibility: 10 or more miles (16+ km)
Ceiling: at least 12,000 feet AGL
Clouds: sky clear below 12,000 feet AGL
Present Weather: no significant weather observed at this time
KPIE 220253Z 26004KT 10SM CLR 27/25 A2997 RMK AO2 SLP149 T02720250 51014

Conditions at: KPIE observed 22 June 2018  01:53 UTC
Temperature: 27.2°C (81°F)
Dewpoint: 25.0°C (77°F) [RH = 88%]
Pressure (altimeter): 29.96 inches Hg (1014.6 mb)
[Sea-level pressure: 1014.6 mb]
Winds: from the W (260 degrees) at 5 MPH (4 knots; 2.1 m/s)
Visibility: 10 or more miles (16+ km)
Ceiling: at least 12,000 feet AGL
Clouds: sky clear below 12,000 feet AGL
Present Weather: no significant weather observed at this time
KPIE 220153Z 26004KT 10SM CLR 27/25 A2996 RMK AO2 SLP146 T02720250

Conditions at: KPIE observed 22 June 2018  00:53 UTC
Temperature: 27.8°C (82°F)
Dewpoint: 25.0°C (77°F) [RH = 85%]
Pressure (altimeter): 29.94 inches Hg (1014.0 mb)
[Sea-level pressure: 1014.0 mb]
Winds: from the W (260 degrees) at 7 MPH (6 knots; 3.1 m/s)
Visibility: 10 or more miles (16+ km)
Ceiling: at least 12,000 feet AGL
Clouds: few clouds at 3000 feet AGL
Present Weather: no significant weather observed at this time
KPIE 220053Z 26006KT 10SM FEW030 28/25 A2994 RMK AO2 SLP140 T02780250

Conditions at: KPIE observed 21 June 2018  23:53 UTC
Temperature: 28.3°C (83°F)
Dewpoint: 24.4°C (76°F) [RH = 79%]
Pressure (altimeter): 29.93 inches Hg (1013.6 mb)
[Sea-level pressure: 1013.5 mb]
Winds: from the W (270 degrees) at 8 MPH (7 knots; 3.6 m/s)
Visibility: 10 or more miles (16+ km)
Ceiling: at least 12,000 feet AGL
Clouds: few clouds at 3000 feet AGL
Present Weather: no significant weather observed at this time
KPIE 212353Z 27007KT 10SM FEW030 28/24 A2993 RMK AO2 SLP135 T02830244 10306 20283 53003

Conditions at: KPIE observed 21 June 2018  22:53 UTC
Temperature: 29.4°C (85°F)
Dewpoint: 25.0°C (77°F) [RH = 77%]
Pressure (altimeter): 29.91 inches Hg (1013.0 mb)
[Sea-level pressure: 1012.8 mb]
Winds: from the WNW (300 degrees) at 10 MPH (9 knots; 4.7 m/s)
Visibility: 10 or more miles (16+ km)
Ceiling: at least 12,000 feet AGL
Clouds: scattered clouds at 2900 feet AGL
Present Weather: no significant weather observed at this time
KPIE 212253Z 30009KT 10SM SCT029 29/25 A2991 RMK AO2 SLP128 T02940250

Conditions at: KPIE observed 21 June 2018  21:53 UTC
Temperature: 30.6°C (87°F)
Dewpoint: 24.4°C (76°F) [RH = 70%]
Pressure (altimeter): 29.92 inches Hg (1013.3 mb)
[Sea-level pressure: 1013.3 mb]
Winds: from the WNW (300 degrees) at 9 MPH (8 knots; 4.2 m/s)
Visibility: 10 or more miles (16+ km)
Ceiling: at least 12,000 feet AGL
Clouds: scattered clouds at 3000 feet AGL
Present Weather: no significant weather observed at this time
KPIE 212153Z 30008KT 10SM SCT030 31/24 A2992 RMK AO2 SLP133 T03060244

Conditions at: KPIE observed 21 June 2018  20:53 UTC
Temperature: 30.0°C (86°F)
Dewpoint: 25.0°C (77°F) [RH = 75%]
Pressure (altimeter): 29.92 inches Hg (1013.3 mb)
[Sea-level pressure: 1013.2 mb]
Winds: from the W (280 degrees) at 8 MPH (7 knots; 3.6 m/s)
Visibility: 10 or more miles (16+ km)
Ceiling: at least 12,000 feet AGL
Clouds: scattered clouds at 3100 feet AGL
Present Weather: no significant weather observed at this time
KPIE 212053Z 28007KT 10SM SCT031 30/25 A2992 RMK AO2 SLP132 T03000250 55010